Portland — WDG2201 — position and weather

sailwx.info

Track history (hours):
 
Tides and Currents Weather Stations Pressure Air Temp Water Temp Dewpoint Dewpoint Depression Visibility Wind Speed Wind Dir Waves Ship Positions

Portland

Owner: Shaver Transportation Company, Portland, OR. More information available from US FCC via Universal Licensing System and Coast Guard Vessel Documentation Center.

Last reported at 2015-Aug-31 23:33 UTC. Time now 2015-Aug-31 23:49 UTC.
Position N 45°38' W 122°44'.

Length 27 m; draft 4 m.

Type: Towing. MMSI: 367315814.

Date/timePositionNaut miles runAvg speedWind from/ knotsBaromVisibWave heightAir tempDewpointWater temp
2015-Aug-31 23:33N 45°38' W 122°44'2 2.4
2015-Aug-31 22:33N 45°38' W 122°47'2 2.4
2015-Aug-31 21:33N 45°36' W 122°46'3 0.8
2015-Aug-31 18:06N 45°34' W 122°44'0 0.0
2015-Aug-31 17:24N 45°34' W 122°44'0 0.0
2015-Aug-31 16:29N 45°34' W 122°44'0 0.0
2015-Aug-31 15:30N 45°34' W 122°44'0 0.0
2015-Aug-31 14:33N 45°34' W 122°44'1 1.2
2015-Aug-31 13:33N 45°35' W 122°45'2 1.5
2015-Aug-31 12:33N 45°36' W 122°46'0 0.3
2015-Aug-31 11:34N 45°36' W 122°47'1 0.5
2015-Aug-31 10:33N 45°36' W 122°47'3 3.2
2015-Aug-31 09:29N 45°34' W 122°44'0 0.0
2015-Aug-31 08:14N 45°34' W 122°44'0 0.0
2015-Aug-31 07:29N 45°34' W 122°44'0 0.0
2015-Aug-31 06:28N 45°34' W 122°44'0 0.0
2015-Aug-31 05:28N 45°34' W 122°44'0 0.0
2015-Aug-31 04:10N 45°34' W 122°44'0 0.0
2015-Aug-31 03:31N 45°34' W 122°44'0 0.0
2015-Aug-31 01:28N 45°34' W 122°44'0 0.0
2015-Aug-31 00:31N 45°34' W 122°44'0 0.0
2015-Aug-30 23:28N 45°34' W 122°44'0 0.0
2015-Aug-30 22:31N 45°34' W 122°44'0 0.0
2015-Aug-30 21:31N 45°34' W 122°44'0 0.0
2015-Aug-30 20:28N 45°34' W 122°44'0 0.0
2015-Aug-30 19:28N 45°34' W 122°44'0 0.0
2015-Aug-30 18:28N 45°34' W 122°44'0 0.0
2015-Aug-30 17:31N 45°34' W 122°44'0 0.0
2015-Aug-30 16:31N 45°34' W 122°44'0 0.0
2015-Aug-30 15:31N 45°34' W 122°44'0 0.0
2015-Aug-30 14:31N 45°34' W 122°44'0 0.0
2015-Aug-30 13:22N 45°34' W 122°44'0 0.0
2015-Aug-30 12:28N 45°34' W 122°44'0 0.0
2015-Aug-30 11:28N 45°34' W 122°44'0 0.0
2015-Aug-30 10:28N 45°34' W 122°44'0 0.0
2015-Aug-30 09:31N 45°34' W 122°44'0 0.0
2015-Aug-30 08:28N 45°34' W 122°44'0 0.0
2015-Aug-30 07:22N 45°34' W 122°44'0 0.0
2015-Aug-30 06:28N 45°34' W 122°44'0 0.0
2015-Aug-30 05:25N 45°34' W 122°44'0 0.0
2015-Aug-30 04:31N 45°34' W 122°44'0 0.0
2015-Aug-30 03:31N 45°34' W 122°44'0 0.0
2015-Aug-30 02:31N 45°34' W 122°44'0 0.0
2015-Aug-30 01:28N 45°34' W 122°44'0 0.0
2015-Aug-30 00:28N 45°34' W 122°44'0 0.0
2015-Aug-29 23:28N 45°34' W 122°44'0 0.0
2015-Aug-29 22:25N 45°34' W 122°44'0 0.0
2015-Aug-29 21:28N 45°34' W 122°44'0 0.0
2015-Aug-29 18:28N 45°34' W 122°44'0 0.0
2015-Aug-29 17:28N 45°34' W 122°44'0 0.0
2015-Aug-29 16:31N 45°34' W 122°44'0 0.0
2015-Aug-29 15:25N 45°34' W 122°44'0 0.0
2015-Aug-29 14:16N 45°34' W 122°44'0 0.0
2015-Aug-29 13:22N 45°34' W 122°44'0 0.0
2015-Aug-29 12:31N 45°34' W 122°44'0 0.0
2015-Aug-29 11:31N 45°34' W 122°44'0 0.0
2015-Aug-29 10:25N 45°34' W 122°44'0 0.0
2015-Aug-29 09:25N 45°34' W 122°44'0 0.0
2015-Aug-29 08:16N 45°34' W 122°44'0 0.0
2015-Aug-29 07:07N 45°34' W 122°44'0 0.0
2015-Aug-29 06:31N 45°34' W 122°44'0 0.0
2015-Aug-29 05:31N 45°34' W 122°44'0 0.0
2015-Aug-29 04:28N 45°34' W 122°44'2 2.1
2015-Aug-29 03:33N 45°33' W 122°41'1 0.6
2015-Aug-29 02:31N 45°32' W 122°41'2 2.6
2015-Aug-29 01:32N 45°34' W 122°44'0 0.0
2015-Aug-29 00:32N 45°34' W 122°44'0 0.0
2015-Aug-28 23:32N 45°34' W 122°44'3 3.1
2015-Aug-28 22:31N 45°36' W 122°47'3 3.6
2015-Aug-28 21:33N 45°38' W 122°43'0 0.0
2015-Aug-28 20:33N 45°38' W 122°43'0 0.3
2015-Aug-28 19:34N 45°38' W 122°43'2 1.6
2015-Aug-28 18:29N 45°39' W 122°45'0 0.4
2015-Aug-28 17:33N 45°39' W 122°45'0 0.3
2015-Aug-28 16:26N 45°39' W 122°45'0 0.0
2015-Aug-28 15:29N 45°39' W 122°45'0 0.0
2015-Aug-28 14:32N 45°39' W 122°45'0 0.0
2015-Aug-28 13:32N 45°39' W 122°45'0 0.0
2015-Aug-28 12:32N 45°39' W 122°45'0 0.0
2015-Aug-28 11:32N 45°39' W 122°45'0 0.0
2015-Aug-28 10:26N 45°39' W 122°45'0 0.0
2015-Aug-28 09:29N 45°39' W 122°45'0 0.0
2015-Aug-28 08:32N 45°39' W 122°45'0 0.0
2015-Aug-28 07:20N 45°39' W 122°45'0 0.0
2015-Aug-28 05:26N 45°39' W 122°45'0 0.0
2015-Aug-28 04:20N 45°39' W 122°45'0 0.0
2015-Aug-28 03:26N 45°39' W 122°45'0 0.0
2015-Aug-28 02:32N 45°39' W 122°45'0 0.0
2015-Aug-28 01:20N 45°39' W 122°45'0 0.0
2015-Aug-27 22:14N 45°39' W 122°45'0 0.3
2015-Aug-27 21:34N 45°39' W 122°45'0 0.2
2015-Aug-27 20:33N 45°39' W 122°45'0 0.0
2015-Aug-27 19:33N 45°39' W 122°45'0 0.0
2015-Aug-27 18:33N 45°39' W 122°45'0 0.0
2015-Aug-27 17:33N 45°39' W 122°45'0 0.4
2015-Aug-27 16:33N 45°39' W 122°45'0 0.4
2015-Aug-27 15:27N 45°39' W 122°45'0 0.0
2015-Aug-27 14:21N 45°39' W 122°45'0 0.0
2015-Aug-27 12:30N 45°39' W 122°45'0 0.0
2015-Aug-27 11:30N 45°39' W 122°45'0 0.0
2015-Aug-27 10:24N 45°39' W 122°45'0 0.0
2015-Aug-27 09:30N 45°39' W 122°45'0 0.0
2015-Aug-27 08:33N 45°39' W 122°45'0 0.0
2015-Aug-27 07:30N 45°39' W 122°45'0 0.0
2015-Aug-27 06:33N 45°39' W 122°45'0 0.0
2015-Aug-27 05:27N 45°39' W 122°45'1 0.8
2015-Aug-27 04:33N 45°39' W 122°44'0 0.4
2015-Aug-27 03:33N 45°38' W 122°44'1 1.0
2015-Aug-27 02:27N 45°39' W 122°45'1 1.4
2015-Aug-27 01:31N 45°40' W 122°46'2 2.0
2015-Aug-27 00:33N 45°38' W 122°44'0 0.0
2015-Aug-26 23:32N 45°38' W 122°44'1 1.0
2015-Aug-26 22:33N 45°39' W 122°45'1 1.0
2015-Aug-26 21:33N 45°39' W 122°47'3 3.1
2015-Aug-26 20:26N 45°38' W 122°42'1 1.7
2015-Aug-26 19:33N 45°38' W 122°44'2 1.2
2015-Aug-26 18:19N 45°38' W 122°42'3 2.9
2015-Aug-26 17:25N 45°39' W 122°45'0 0.0
2015-Aug-26 16:28N 45°39' W 122°45'0 0.0
2015-Aug-26 15:25N 45°39' W 122°45'0 0.0
2015-Aug-26 14:31N 45°39' W 122°45'0 0.0
2015-Aug-26 13:31N 45°39' W 122°45'0 0.0
2015-Aug-26 11:31N 45°39' W 122°45'0 0.0
2015-Aug-26 10:31N 45°39' W 122°45'0 0.0
2015-Aug-26 09:31N 45°39' W 122°45'0 0.0
2015-Aug-26 08:25N 45°39' W 122°45'1 1.3
2015-Aug-26 07:33N 45°38' W 122°47'5 4.7
2015-Aug-26 06:33N 45°34' W 122°44'1 0.6
2015-Aug-26 05:33N 45°34' W 122°44'0 0.0
2015-Aug-26 04:33N 45°34' W 122°44'0 0.0
2015-Aug-26 03:22N 45°34' W 122°44'0 0.0
2015-Aug-26 02:28N 45°34' W 122°44'0 0.0
2015-Aug-26 01:28N 45°34' W 122°44'0 0.0
2015-Aug-26 00:31N 45°34' W 122°44'0 0.0
2015-Aug-25 23:31N 45°34' W 122°44'0 0.0
2015-Aug-25 22:28N 45°34' W 122°44'0 0.0
2015-Aug-25 21:28N 45°34' W 122°44'0 0.0
2015-Aug-25 20:28N 45°34' W 122°44'0 0.0
2015-Aug-25 19:22N 45°34' W 122°44'0 0.0
2015-Aug-25 18:22N 45°34' W 122°44'0 0.0
2015-Aug-25 17:28N 45°34' W 122°44'0 0.0
2015-Aug-25 16:28N 45°34' W 122°44'0 0.0
2015-Aug-25 15:31N 45°34' W 122°44'0 0.0
2015-Aug-25 14:31N 45°34' W 122°44'0 0.0
2015-Aug-25 13:30N 45°34' W 122°44'3 2.7
2015-Aug-25 12:33N 45°32' W 122°41'3 2.6
2015-Aug-25 11:33N 45°34' W 122°44'0 0.0
2015-Aug-25 10:32N 45°34' W 122°44'0 0.0
2015-Aug-25 09:32N 45°34' W 122°44'0 0.0
2015-Aug-25 08:32N 45°34' W 122°44'0 0.0
2015-Aug-25 07:29N 45°34' W 122°44'0 0.0
2015-Aug-25 06:32N 45°34' W 122°44'0 0.0
2015-Aug-25 05:32N 45°34' W 122°44'0 0.0
2015-Aug-25 04:32N 45°34' W 122°44'0 0.0
2015-Aug-25 03:20N 45°34' W 122°44'0 0.0
2015-Aug-25 02:32N 45°34' W 122°44'0 0.0
2015-Aug-25 01:32N 45°34' W 122°44'0 0.0
2015-Aug-24 23:32N 45°34' W 122°44'0 0.0
2015-Aug-24 22:32N 45°34' W 122°44'0 0.0
2015-Aug-24 21:32N 45°34' W 122°44'0 0.0
2015-Aug-24 20:32N 45°34' W 122°44'0 0.0
2015-Aug-24 19:20N 45°34' W 122°44'0 0.0
2015-Aug-24 18:32N 45°34' W 122°44'0 0.0
2015-Aug-24 17:32N 45°34' W 122°44'0 0.0
2015-Aug-24 16:32N 45°34' W 122°44'0 0.0
2015-Aug-24 15:32N 45°34' W 122°44'0 0.0
2015-Aug-24 14:32N 45°34' W 122°44'0 0.5
2015-Aug-24 13:33N 45°33' W 122°43'2 1.9
2015-Aug-24 12:33N 45°32' W 122°41'2 2.3
2015-Aug-24 11:33N 45°34' W 122°44'0 0.4
2015-Aug-24 10:33N 45°34' W 122°44'5 4.6
2015-Aug-24 09:31N 45°39' W 122°45'0 0.0
2015-Aug-24 08:25N 45°39' W 122°45'0 0.0
2015-Aug-24 07:31N 45°39' W 122°45'0 0.0
2015-Aug-24 06:28N 45°39' W 122°45'0 0.0
2015-Aug-24 05:31N 45°39' W 122°45'0 0.0
2015-Aug-24 04:28N 45°39' W 122°45'0 0.0
2015-Aug-24 03:31N 45°39' W 122°45'0 0.0
2015-Aug-24 02:31N 45°39' W 122°45'0 0.2
2015-Aug-24 01:33N 45°39' W 122°45'5 4.8
2015-Aug-24 00:28N 45°34' W 122°44'0 0.0
2015-Aug-23 23:22N 45°34' W 122°44'0 0.0
2015-Aug-23 22:28N 45°34' W 122°44'0 0.0
2015-Aug-23 21:31N 45°34' W 122°44'0 0.0
2015-Aug-23 20:31N 45°34' W 122°44'0 0.0
2015-Aug-23 19:28N 45°34' W 122°44'0 0.0
2015-Aug-23 18:31N 45°34' W 122°44'0 0.0
2015-Aug-23 17:25N 45°34' W 122°44'0 0.0
2015-Aug-23 16:16N 45°34' W 122°44'0 0.0
2015-Aug-23 15:31N 45°34' W 122°44'0 0.0
2015-Aug-23 13:22N 45°34' W 122°44'0 0.0
2015-Aug-23 12:28N 45°34' W 122°44'0 0.0
2015-Aug-23 11:31N 45°34' W 122°44'0 0.0
2015-Aug-23 10:16N 45°34' W 122°44'0 0.0
2015-Aug-23 09:28N 45°34' W 122°44'0 0.0
2015-Aug-23 08:31N 45°34' W 122°44'0 0.0
2015-Aug-23 07:10N 45°34' W 122°44'0 0.0
2015-Aug-23 06:16N 45°34' W 122°44'0 0.0
2015-Aug-23 05:28N 45°34' W 122°44'0 0.0
2015-Aug-23 04:25N 45°34' W 122°44'0 0.0
2015-Aug-23 03:31N 45°34' W 122°44'0 0.0
2015-Aug-23 02:33N 45°34' W 122°44'0 0.0
2015-Aug-23 01:33N 45°34' W 122°44'0 0.0
2015-Aug-23 00:33N 45°34' W 122°44'0 0.0
2015-Aug-22 23:33N 45°34' W 122°44'0 0.0
2015-Aug-22 22:33N 45°34' W 122°44'3 2.9
2015-Aug-22 21:33N 45°36' W 122°47'1 1.2
2015-Aug-22 20:33N 45°35' W 122°45'1 1.2
2015-Aug-22 19:33N 45°34' W 122°44'1 0.5
2015-Aug-22 18:26N 45°34' W 122°44'0 0.0
2015-Aug-22 17:20N 45°34' W 122°44'0 0.0
2015-Aug-22 16:14N 45°34' W 122°44'0 0.0
2015-Aug-22 15:20N 45°34' W 122°44'0 0.0
2015-Aug-22 13:29N 45°34' W 122°44'0 0.0
2015-Aug-22 12:08N 45°34' W 122°44'0 0.0
2015-Aug-22 11:26N 45°34' W 122°44'0 0.0
2015-Aug-22 10:29N 45°34' W 122°44'0 0.0
2015-Aug-22 09:29N 45°34' W 122°44'0 0.0
2015-Aug-22 08:17N 45°34' W 122°44'0 0.0
2015-Aug-22 07:23N 45°34' W 122°44'0 0.0
2015-Aug-22 06:20N 45°34' W 122°44'0 0.0
2015-Aug-22 05:26N 45°34' W 122°44'0 0.0
2015-Aug-22 04:11N 45°34' W 122°44'0 0.0
2015-Aug-22 03:17N 45°34' W 122°44'0 0.0
2015-Aug-22 02:32N 45°34' W 122°44'1 0.5
2015-Aug-22 01:13N 45°34' W 122°44'1 1.1
2015-Aug-22 00:33N 45°35' W 122°45'  
Track history (hours):
 
Tides and Currents Weather Stations Pressure Air Temp Water Temp Dewpoint Dewpoint Depression Visibility Wind Speed Wind Dir Waves Ship Positions

Portland

Owner: Shaver Transportation Company, Portland, OR. More information available from US FCC via Universal Licensing System and Coast Guard Vessel Documentation Center.

Last reported at 2015-Aug-31 23:33 UTC. Time now 2015-Aug-31 23:50 UTC.
Position N 45°38' W 122°44'.

Length 27 m; draft 4 m.

Type: Towing. MMSI: 367315814.

Date/timePositionNaut miles runAvg speedWind from/ knotsBaromVisibWave heightAir tempDewpointWater temp
2015-Aug-31 23:33N 45°38' W 122°44'2 2.4
2015-Aug-31 22:33N 45°38' W 122°47'2 2.4
2015-Aug-31 21:33N 45°36' W 122°46'3 0.8
2015-Aug-31 18:06N 45°34' W 122°44'0 0.0
2015-Aug-31 17:24N 45°34' W 122°44'0 0.0
2015-Aug-31 16:29N 45°34' W 122°44'0 0.0
2015-Aug-31 15:30N 45°34' W 122°44'0 0.0
2015-Aug-31 14:33N 45°34' W 122°44'1 1.2
2015-Aug-31 13:33N 45°35' W 122°45'2 1.5
2015-Aug-31 12:33N 45°36' W 122°46'0 0.3
2015-Aug-31 11:34N 45°36' W 122°47'1 0.5
2015-Aug-31 10:33N 45°36' W 122°47'3 3.2
2015-Aug-31 09:29N 45°34' W 122°44'0 0.0
2015-Aug-31 08:14N 45°34' W 122°44'0 0.0
2015-Aug-31 07:29N 45°34' W 122°44'0 0.0
2015-Aug-31 06:28N 45°34' W 122°44'0 0.0
2015-Aug-31 05:28N 45°34' W 122°44'0 0.0
2015-Aug-31 04:10N 45°34' W 122°44'0 0.0
2015-Aug-31 03:31N 45°34' W 122°44'0 0.0
2015-Aug-31 01:28N 45°34' W 122°44'0 0.0
2015-Aug-31 00:31N 45°34' W 122°44'0 0.0
2015-Aug-30 23:28N 45°34' W 122°44'0 0.0
2015-Aug-30 22:31N 45°34' W 122°44'0 0.0
2015-Aug-30 21:31N 45°34' W 122°44'0 0.0
2015-Aug-30 20:28N 45°34' W 122°44'0 0.0
2015-Aug-30 19:28N 45°34' W 122°44'0 0.0
2015-Aug-30 18:28N 45°34' W 122°44'0 0.0
2015-Aug-30 17:31N 45°34' W 122°44'0 0.0
2015-Aug-30 16:31N 45°34' W 122°44'0 0.0
2015-Aug-30 15:31N 45°34' W 122°44'0 0.0
2015-Aug-30 14:31N 45°34' W 122°44'0 0.0
2015-Aug-30 13:22N 45°34' W 122°44'0 0.0
2015-Aug-30 12:28N 45°34' W 122°44'0 0.0
2015-Aug-30 11:28N 45°34' W 122°44'0 0.0
2015-Aug-30 10:28N 45°34' W 122°44'0 0.0
2015-Aug-30 09:31N 45°34' W 122°44'0 0.0
2015-Aug-30 08:28N 45°34' W 122°44'0 0.0
2015-Aug-30 07:22N 45°34' W 122°44'0 0.0
2015-Aug-30 06:28N 45°34' W 122°44'0 0.0
2015-Aug-30 05:25N 45°34' W 122°44'0 0.0
2015-Aug-30 04:31N 45°34' W 122°44'0 0.0
2015-Aug-30 03:31N 45°34' W 122°44'0 0.0
2015-Aug-30 02:31N 45°34' W 122°44'0 0.0
2015-Aug-30 01:28N 45°34' W 122°44'0 0.0
2015-Aug-30 00:28N 45°34' W 122°44'0 0.0
2015-Aug-29 23:28N 45°34' W 122°44'0 0.0
2015-Aug-29 22:25N 45°34' W 122°44'0 0.0
2015-Aug-29 21:28N 45°34' W 122°44'0 0.0
2015-Aug-29 18:28N 45°34' W 122°44'0 0.0
2015-Aug-29 17:28N 45°34' W 122°44'0 0.0
2015-Aug-29 16:31N 45°34' W 122°44'0 0.0
2015-Aug-29 15:25N 45°34' W 122°44'0 0.0
2015-Aug-29 14:16N 45°34' W 122°44'0 0.0
2015-Aug-29 13:22N 45°34' W 122°44'0 0.0
2015-Aug-29 12:31N 45°34' W 122°44'0 0.0
2015-Aug-29 11:31N 45°34' W 122°44'0 0.0
2015-Aug-29 10:25N 45°34' W 122°44'0 0.0
2015-Aug-29 09:25N 45°34' W 122°44'0 0.0
2015-Aug-29 08:16N 45°34' W 122°44'0 0.0
2015-Aug-29 07:07N 45°34' W 122°44'0 0.0
2015-Aug-29 06:31N 45°34' W 122°44'0 0.0
2015-Aug-29 05:31N 45°34' W 122°44'0 0.0
2015-Aug-29 04:28N 45°34' W 122°44'2 2.1
2015-Aug-29 03:33N 45°33' W 122°41'1 0.6
2015-Aug-29 02:31N 45°32' W 122°41'2 2.6
2015-Aug-29 01:32N 45°34' W 122°44'0 0.0
2015-Aug-29 00:32N 45°34' W 122°44'0 0.0
2015-Aug-28 23:32N 45°34' W 122°44'3 3.1
2015-Aug-28 22:31N 45°36' W 122°47'3 3.6
2015-Aug-28 21:33N 45°38' W 122°43'0 0.0
2015-Aug-28 20:33N 45°38' W 122°43'0 0.3
2015-Aug-28 19:34N 45°38' W 122°43'2 1.6
2015-Aug-28 18:29N 45°39' W 122°45'0 0.4
2015-Aug-28 17:33N 45°39' W 122°45'0 0.3
2015-Aug-28 16:26N 45°39' W 122°45'0 0.0
2015-Aug-28 15:29N 45°39' W 122°45'0 0.0
2015-Aug-28 14:32N 45°39' W 122°45'0 0.0
2015-Aug-28 13:32N 45°39' W 122°45'0 0.0
2015-Aug-28 12:32N 45°39' W 122°45'0 0.0
2015-Aug-28 11:32N 45°39' W 122°45'0 0.0
2015-Aug-28 10:26N 45°39' W 122°45'0 0.0
2015-Aug-28 09:29N 45°39' W 122°45'0 0.0
2015-Aug-28 08:32N 45°39' W 122°45'0 0.0
2015-Aug-28 07:20N 45°39' W 122°45'0 0.0
2015-Aug-28 05:26N 45°39' W 122°45'0 0.0
2015-Aug-28 04:20N 45°39' W 122°45'0 0.0
2015-Aug-28 03:26N 45°39' W 122°45'0 0.0
2015-Aug-28 02:32N 45°39' W 122°45'0 0.0
2015-Aug-28 01:20N 45°39' W 122°45'0 0.0
2015-Aug-27 22:14N 45°39' W 122°45'0 0.3
2015-Aug-27 21:34N 45°39' W 122°45'0 0.2
2015-Aug-27 20:33N 45°39' W 122°45'0 0.0
2015-Aug-27 19:33N 45°39' W 122°45'0 0.0
2015-Aug-27 18:33N 45°39' W 122°45'0 0.0
2015-Aug-27 17:33N 45°39' W 122°45'0 0.4
2015-Aug-27 16:33N 45°39' W 122°45'0 0.4
2015-Aug-27 15:27N 45°39' W 122°45'0 0.0
2015-Aug-27 14:21N 45°39' W 122°45'0 0.0
2015-Aug-27 12:30N 45°39' W 122°45'0 0.0
2015-Aug-27 11:30N 45°39' W 122°45'0 0.0
2015-Aug-27 10:24N 45°39' W 122°45'0 0.0
2015-Aug-27 09:30N 45°39' W 122°45'0 0.0
2015-Aug-27 08:33N 45°39' W 122°45'0 0.0
2015-Aug-27 07:30N 45°39' W 122°45'0 0.0
2015-Aug-27 06:33N 45°39' W 122°45'0 0.0
2015-Aug-27 05:27N 45°39' W 122°45'1 0.8
2015-Aug-27 04:33N 45°39' W 122°44'0 0.4
2015-Aug-27 03:33N 45°38' W 122°44'1 1.0
2015-Aug-27 02:27N 45°39' W 122°45'1 1.4
2015-Aug-27 01:31N 45°40' W 122°46'2 2.0
2015-Aug-27 00:33N 45°38' W 122°44'0 0.0
2015-Aug-26 23:32N 45°38' W 122°44'1 1.0
2015-Aug-26 22:33N 45°39' W 122°45'1 1.0
2015-Aug-26 21:33N 45°39' W 122°47'3 3.1
2015-Aug-26 20:26N 45°38' W 122°42'1 1.7
2015-Aug-26 19:33N 45°38' W 122°44'2 1.2
2015-Aug-26 18:19N 45°38' W 122°42'3 2.9
2015-Aug-26 17:25N 45°39' W 122°45'0 0.0
2015-Aug-26 16:28N 45°39' W 122°45'0 0.0
2015-Aug-26 15:25N 45°39' W 122°45'0 0.0
2015-Aug-26 14:31N 45°39' W 122°45'0 0.0
2015-Aug-26 13:31N 45°39' W 122°45'0 0.0
2015-Aug-26 11:31N 45°39' W 122°45'0 0.0
2015-Aug-26 10:31N 45°39' W 122°45'0 0.0
2015-Aug-26 09:31N 45°39' W 122°45'0 0.0
2015-Aug-26 08:25N 45°39' W 122°45'1 1.3
2015-Aug-26 07:33N 45°38' W 122°47'5 4.7
2015-Aug-26 06:33N 45°34' W 122°44'1 0.6
2015-Aug-26 05:33N 45°34' W 122°44'0 0.0
2015-Aug-26 04:33N 45°34' W 122°44'0 0.0
2015-Aug-26 03:22N 45°34' W 122°44'0 0.0
2015-Aug-26 02:28N 45°34' W 122°44'0 0.0
2015-Aug-26 01:28N 45°34' W 122°44'0 0.0
2015-Aug-26 00:31N 45°34' W 122°44'0 0.0
2015-Aug-25 23:31N 45°34' W 122°44'0 0.0
2015-Aug-25 22:28N 45°34' W 122°44'0 0.0
2015-Aug-25 21:28N 45°34' W 122°44'0 0.0
2015-Aug-25 20:28N 45°34' W 122°44'0 0.0
2015-Aug-25 19:22N 45°34' W 122°44'0 0.0
2015-Aug-25 18:22N 45°34' W 122°44'0 0.0
2015-Aug-25 17:28N 45°34' W 122°44'0 0.0
2015-Aug-25 16:28N 45°34' W 122°44'0 0.0
2015-Aug-25 15:31N 45°34' W 122°44'0 0.0
2015-Aug-25 14:31N 45°34' W 122°44'0 0.0
2015-Aug-25 13:30N 45°34' W 122°44'3 2.7
2015-Aug-25 12:33N 45°32' W 122°41'3 2.6
2015-Aug-25 11:33N 45°34' W 122°44'0 0.0
2015-Aug-25 10:32N 45°34' W 122°44'0 0.0
2015-Aug-25 09:32N 45°34' W 122°44'0 0.0
2015-Aug-25 08:32N 45°34' W 122°44'0 0.0
2015-Aug-25 07:29N 45°34' W 122°44'0 0.0
2015-Aug-25 06:32N 45°34' W 122°44'0 0.0
2015-Aug-25 05:32N 45°34' W 122°44'0 0.0
2015-Aug-25 04:32N 45°34' W 122°44'0 0.0
2015-Aug-25 03:20N 45°34' W 122°44'0 0.0
2015-Aug-25 02:32N 45°34' W 122°44'0 0.0
2015-Aug-25 01:32N 45°34' W 122°44'0 0.0
2015-Aug-24 23:32N 45°34' W 122°44'0 0.0
2015-Aug-24 22:32N 45°34' W 122°44'0 0.0
2015-Aug-24 21:32N 45°34' W 122°44'0 0.0
2015-Aug-24 20:32N 45°34' W 122°44'0 0.0
2015-Aug-24 19:20N 45°34' W 122°44'0 0.0
2015-Aug-24 18:32N 45°34' W 122°44'0 0.0
2015-Aug-24 17:32N 45°34' W 122°44'0 0.0
2015-Aug-24 16:32N 45°34' W 122°44'0 0.0
2015-Aug-24 15:32N 45°34' W 122°44'0 0.0
2015-Aug-24 14:32N 45°34' W 122°44'0 0.5
2015-Aug-24 13:33N 45°33' W 122°43'2 1.9
2015-Aug-24 12:33N 45°32' W 122°41'2 2.3
2015-Aug-24 11:33N 45°34' W 122°44'0 0.4
2015-Aug-24 10:33N 45°34' W 122°44'5 4.6
2015-Aug-24 09:31N 45°39' W 122°45'0 0.0
2015-Aug-24 08:25N 45°39' W 122°45'0 0.0
2015-Aug-24 07:31N 45°39' W 122°45'0 0.0
2015-Aug-24 06:28N 45°39' W 122°45'0 0.0
2015-Aug-24 05:31N 45°39' W 122°45'0 0.0
2015-Aug-24 04:28N 45°39' W 122°45'0 0.0
2015-Aug-24 03:31N 45°39' W 122°45'0 0.0
2015-Aug-24 02:31N 45°39' W 122°45'0 0.2
2015-Aug-24 01:33N 45°39' W 122°45'5 4.8
2015-Aug-24 00:28N 45°34' W 122°44'0 0.0
2015-Aug-23 23:22N 45°34' W 122°44'0 0.0
2015-Aug-23 22:28N 45°34' W 122°44'0 0.0
2015-Aug-23 21:31N 45°34' W 122°44'0 0.0
2015-Aug-23 20:31N 45°34' W 122°44'0 0.0
2015-Aug-23 19:28N 45°34' W 122°44'0 0.0
2015-Aug-23 18:31N 45°34' W 122°44'0 0.0
2015-Aug-23 17:25N 45°34' W 122°44'0 0.0
2015-Aug-23 16:16N 45°34' W 122°44'0 0.0
2015-Aug-23 15:31N 45°34' W 122°44'0 0.0
2015-Aug-23 13:22N 45°34' W 122°44'0 0.0
2015-Aug-23 12:28N 45°34' W 122°44'0 0.0
2015-Aug-23 11:31N 45°34' W 122°44'0 0.0
2015-Aug-23 10:16N 45°34' W 122°44'0 0.0
2015-Aug-23 09:28N 45°34' W 122°44'0 0.0
2015-Aug-23 08:31N 45°34' W 122°44'0 0.0
2015-Aug-23 07:10N 45°34' W 122°44'0 0.0
2015-Aug-23 06:16N 45°34' W 122°44'0 0.0
2015-Aug-23 05:28N 45°34' W 122°44'0 0.0
2015-Aug-23 04:25N 45°34' W 122°44'0 0.0
2015-Aug-23 03:31N 45°34' W 122°44'0 0.0
2015-Aug-23 02:33N 45°34' W 122°44'0 0.0
2015-Aug-23 01:33N 45°34' W 122°44'0 0.0
2015-Aug-23 00:33N 45°34' W 122°44'0 0.0
2015-Aug-22 23:33N 45°34' W 122°44'0 0.0
2015-Aug-22 22:33N 45°34' W 122°44'3 2.9
2015-Aug-22 21:33N 45°36' W 122°47'1 1.2
2015-Aug-22 20:33N 45°35' W 122°45'1 1.2
2015-Aug-22 19:33N 45°34' W 122°44'1 0.5
2015-Aug-22 18:26N 45°34' W 122°44'0 0.0
2015-Aug-22 17:20N 45°34' W 122°44'0 0.0
2015-Aug-22 16:14N 45°34' W 122°44'0 0.0
2015-Aug-22 15:20N 45°34' W 122°44'0 0.0
2015-Aug-22 13:29N 45°34' W 122°44'0 0.0
2015-Aug-22 12:08N 45°34' W 122°44'0 0.0
2015-Aug-22 11:26N 45°34' W 122°44'0 0.0
2015-Aug-22 10:29N 45°34' W 122°44'0 0.0
2015-Aug-22 09:29N 45°34' W 122°44'0 0.0
2015-Aug-22 08:17N 45°34' W 122°44'0 0.0
2015-Aug-22 07:23N 45°34' W 122°44'0 0.0
2015-Aug-22 06:20N 45°34' W 122°44'0 0.0
2015-Aug-22 05:26N 45°34' W 122°44'0 0.0
2015-Aug-22 04:11N 45°34' W 122°44'0 0.0
2015-Aug-22 03:17N 45°34' W 122°44'0 0.0
2015-Aug-22 02:32N 45°34' W 122°44'1 0.5
2015-Aug-22 01:13N 45°34' W 122°44'1 1.1
2015-Aug-22 00:33N 45°35' W 122°45'  

Dump ship's entire track history